Time;durP1;ratioP1;P1;durP2;ratioP2;P2;SDS_P1;SDS_P2;PMS_P1;PMS_P2;Temp;Humidity;BMP_temperature;BMP_pressure;BME280_temperature;BME280_humidity;BME280_pressure;Samples;Min_cycle;Max_cycle;Signal;HPM_P1;HPM_P2
2022/01/17 00:01:53;;;;;;;11.48;1.95;;;6.70;99.90;;;;;;5045400;28;20049;-72
2022/01/17 00:04:20;;;;;;;13.15;2.05;;;6.70;99.90;;;;;;5045084;28;20116;-73
2022/01/17 00:06:46;;;;;;;9.82;1.73;;;6.70;99.90;;;;;;5041176;28;20071;-73
2022/01/17 00:09:12;;;;;;;10.23;1.90;;;6.70;99.90;;;;;;5053430;28;20049;-72
2022/01/17 00:11:42;;;;;;;12.00;1.77;;;6.70;99.90;;;;;;5043778;28;20400;-72
2022/01/17 00:14:12;;;;;;;14.48;2.17;;;6.70;99.90;;;;;;5037034;28;20037;-72
2022/01/17 00:16:47;;;;;;;13.25;2.22;;;6.70;99.90;;;;;;5045172;28;20072;-72
2022/01/17 00:21:48;;;;;;;9.13;1.92;;;6.70;99.90;;;;;;5048226;28;19928;-72
2022/01/17 00:24:14;;;;;;;11.75;1.95;;;6.70;99.90;;;;;;5047878;28;20392;-72
2022/01/17 00:26:39;;;;;;;13.45;2.25;;;6.70;99.90;;;;;;5046821;28;20159;-72
2022/01/17 00:29:05;;;;;;;11.27;2.15;;;6.70;99.90;;;;;;5052328;28;20182;-73
2022/01/17 00:31:31;;;;;;;9.63;1.80;;;6.70;99.90;;;;;;5053893;28;20064;-72
2022/01/17 00:33:56;;;;;;;11.75;2.05;;;6.70;99.90;;;;;;5046013;28;20049;-73
2022/01/17 00:36:22;;;;;;;9.32;1.60;;;6.70;99.90;;;;;;5043191;28;20051;-72
2022/01/17 00:38:47;;;;;;;10.30;1.73;;;6.60;99.90;;;;;;5045863;28;20036;-73
2022/01/17 00:41:13;;;;;;;11.52;1.92;;;6.60;99.90;;;;;;5044061;28;20048;-73
2022/01/17 00:43:38;;;;;;;12.68;2.10;;;6.60;99.90;;;;;;5041864;28;20131;-72
2022/01/17 00:46:04;;;;;;;11.80;2.80;;;6.60;99.90;;;;;;5045921;28;20113;-73
2022/01/17 00:48:30;;;;;;;11.57;1.92;;;6.60;99.90;;;;;;5043226;28;20571;-72
2022/01/17 00:50:55;;;;;;;14.55;2.55;;;6.60;99.90;;;;;;5041630;28;20114;-74
2022/01/17 00:53:21;;;;;;;14.48;1.98;;;6.60;99.90;;;;;;5039968;28;20060;-73
2022/01/17 00:55:46;;;;;;;9.73;2.20;;;6.50;99.90;;;;;;5043942;28;20132;-72
2022/01/17 00:58:12;;;;;;;16.23;2.45;;;6.50;99.90;;;;;;5045900;28;20190;-73
2022/01/17 01:00:40;;;;;;;11.50;2.05;;;6.50;99.90;;;;;;5043438;28;20263;-72
2022/01/17 01:03:06;;;;;;;17.90;2.30;;;6.50;99.90;;;;;;5045427;28;20068;-72
2022/01/17 01:05:33;;;;;;;17.98;2.75;;;6.50;99.90;;;;;;5050723;28;20045;-72
2022/01/17 01:07:58;;;;;;;14.63;3.10;;;6.50;99.90;;;;;;5049466;28;20041;-73
2022/01/17 01:10:24;;;;;;;14.63;3.03;;;6.50;99.90;;;;;;5045250;28;20047;-72
2022/01/17 01:12:51;;;;;;;14.38;2.00;;;6.50;99.90;;;;;;5045264;28;20049;-72
2022/01/17 01:15:22;;;;;;;12.88;1.70;;;6.50;99.90;;;;;;5037031;28;20049;-72
2022/01/17 01:17:54;;;;;;;15.60;2.38;;;6.50;99.90;;;;;;5044963;28;20049;-73
2022/01/17 01:28:33;;;;;;;13.25;2.08;;;6.40;99.90;;;;;;5043987;28;20206;-72
2022/01/17 01:31:01;;;;;;;17.58;2.85;;;6.40;99.90;;;;;;5040900;28;20144;-73
2022/01/17 01:33:34;;;;;;;12.85;2.50;;;6.40;99.90;;;;;;5050996;28;20395;-73
2022/01/17 01:36:05;;;;;;;12.43;2.30;;;6.30;99.90;;;;;;5045159;28;20071;-73
2022/01/17 01:38:31;;;;;;;12.55;2.20;;;6.30;99.90;;;;;;5046609;28;20041;-73
2022/01/17 01:40:57;;;;;;;16.75;3.65;;;6.30;99.90;;;;;;5044963;28;20060;-73
2022/01/17 01:43:22;;;;;;;13.27;1.95;;;6.30;99.90;;;;;;5046068;28;20060;-74
2022/01/17 01:45:49;;;;;;;11.77;2.25;;;6.10;99.90;;;;;;5050615;28;20057;-73
2022/01/17 01:48:18;;;;;;;26.30;3.10;;;6.20;99.90;;;;;;5050650;28;20041;-72
2022/01/17 01:50:44;;;;;;;16.20;2.10;;;6.10;99.90;;;;;;5048559;28;20057;-73
2022/01/17 01:53:09;;;;;;;11.93;1.98;;;6.10;99.90;;;;;;5059288;28;20033;-72
2022/01/17 01:55:35;;;;;;;12.07;1.73;;;6.00;99.90;;;;;;5056299;28;20049;-73
2022/01/17 01:58:01;;;;;;;9.85;1.90;;;6.00;99.90;;;;;;5054124;28;20060;-72
2022/01/17 02:00:26;;;;;;;14.02;2.58;;;6.00;99.90;;;;;;5050238;28;20053;-72
2022/01/17 02:02:52;;;;;;;16.00;2.53;;;5.90;99.90;;;;;;5040586;28;20045;-73
2022/01/17 02:05:18;;;;;;;13.35;2.47;;;5.90;99.90;;;;;;5040646;28;20087;-72
2022/01/17 02:07:44;;;;;;;13.65;2.03;;;5.90;99.90;;;;;;5048881;28;20053;-72
2022/01/17 02:10:11;;;;;;;16.83;2.53;;;5.90;99.90;;;;;;5043693;28;20037;-73
2022/01/17 02:12:37;;;;;;;14.13;2.20;;;5.90;99.90;;;;;;5045904;28;20041;-73
2022/01/17 02:15:06;;;;;;;14.88;2.53;;;5.80;99.90;;;;;;5043728;28;20055;-73
2022/01/17 02:17:34;;;;;;;12.68;2.42;;;5.80;99.90;;;;;;5046826;28;20484;-72
2022/01/17 02:20:07;;;;;;;16.60;2.90;;;5.80;99.90;;;;;;5045852;28;20040;-73
2022/01/17 02:22:34;;;;;;;16.95;3.22;;;5.80;99.90;;;;;;5053426;28;20436;-72
2022/01/17 02:24:59;;;;;;;11.18;2.00;;;5.80;99.90;;;;;;5056192;28;20057;-72
2022/01/17 02:27:25;;;;;;;16.13;2.35;;;5.80;99.90;;;;;;5045831;28;20049;-73
2022/01/17 02:29:51;;;;;;;12.63;2.47;;;5.80;99.90;;;;;;5051827;28;20472;-72
2022/01/17 02:32:17;;;;;;;15.50;2.38;;;5.80;99.90;;;;;;5045494;28;20040;-72
2022/01/17 02:34:43;;;;;;;14.40;2.67;;;5.70;99.90;;;;;;5039469;28;20053;-72
2022/01/17 02:37:10;;;;;;;16.05;2.00;;;5.70;99.90;;;;;;5044031;28;20041;-72
2022/01/17 02:39:36;;;;;;;15.43;2.10;;;5.80;99.90;;;;;;5044704;28;20049;-74
2022/01/17 02:42:03;;;;;;;12.75;2.40;;;5.70;99.90;;;;;;5046224;28;20048;-72
2022/01/17 02:44:29;;;;;;;12.52;2.05;;;5.70;99.90;;;;;;5038720;28;20489;-72
2022/01/17 02:46:55;;;;;;;12.00;2.03;;;5.70;99.90;;;;;;5043236;28;20045;-73
2022/01/17 02:49:20;;;;;;;15.05;2.45;;;5.70;99.90;;;;;;5047484;28;20131;-74
2022/01/17 02:51:48;;;;;;;15.18;2.22;;;5.70;99.90;;;;;;5024544;28;20466;-73
2022/01/17 02:54:15;;;;;;;14.02;2.70;;;5.70;99.90;;;;;;5046833;28;20137;-74
2022/01/17 02:56:40;;;;;;;14.25;2.42;;;5.70;99.90;;;;;;5041461;28;20078;-72
2022/01/17 02:59:07;;;;;;;13.75;1.85;;;5.60;99.90;;;;;;5048951;28;20037;-73
2022/01/17 03:01:32;;;;;;;14.35;2.28;;;5.60;99.90;;;;;;5038911;28;20045;-73
2022/01/17 03:03:58;;;;;;;10.65;2.15;;;5.60;99.90;;;;;;5040490;28;20036;-73
2022/01/17 03:06:25;;;;;;;12.23;2.28;;;5.60;99.90;;;;;;5033737;28;20148;-73
2022/01/17 03:08:51;;;;;;;13.02;2.30;;;5.60;99.90;;;;;;5053666;28;20099;-74
2022/01/17 03:11:21;;;;;;;13.75;2.13;;;5.60;99.90;;;;;;5048186;28;20124;-73
2022/01/17 03:13:48;;;;;;;16.20;2.53;;;5.60;99.90;;;;;;5038907;28;20116;-73
2022/01/17 03:16:15;;;;;;;12.50;1.83;;;5.50;99.90;;;;;;5043947;28;20507;-73
2022/01/17 03:18:50;;;;;;;17.65;2.42;;;5.50;99.90;;;;;;5036388;28;20049;-73
2022/01/17 03:21:17;;;;;;;13.27;2.05;;;5.50;99.90;;;;;;5041985;28;20087;-73
2022/01/17 03:23:44;;;;;;;16.85;2.47;;;5.50;99.90;;;;;;5035438;28;20156;-73
2022/01/17 03:26:10;;;;;;;16.77;2.50;;;5.40;99.90;;;;;;5042169;28;20372;-73
2022/01/17 03:28:37;;;;;;;16.38;2.33;;;5.40;99.90;;;;;;5041732;28;20046;-74
2022/01/17 03:31:04;;;;;;;13.27;2.53;;;5.40;99.90;;;;;;5038954;28;20045;-73
2022/01/17 03:33:30;;;;;;;10.48;2.10;;;5.40;99.90;;;;;;5051311;28;20040;-73
2022/01/17 03:35:56;;;;;;;12.52;2.30;;;5.40;99.90;;;;;;5037628;28;20454;-74
2022/01/17 03:38:25;;;;;;;16.00;2.53;;;5.40;99.90;;;;;;5049493;28;20507;-73
2022/01/17 03:40:51;;;;;;;15.55;2.70;;;5.40;99.90;;;;;;5046461;28;20060;-73
2022/01/17 03:43:18;;;;;;;12.10;2.33;;;5.40;99.90;;;;;;5040417;28;20522;-73
2022/01/17 03:45:45;;;;;;;13.80;2.45;;;5.40;99.90;;;;;;5046703;28;20041;-73
2022/01/17 03:48:11;;;;;;;14.02;1.98;;;5.40;99.90;;;;;;5033149;28;20421;-73
2022/01/17 03:50:37;;;;;;;12.90;2.17;;;5.40;99.90;;;;;;5044292;28;20068;-74
2022/01/17 03:53:04;;;;;;;18.15;3.15;;;5.40;99.90;;;;;;5050374;28;20061;-72
2022/01/17 03:55:32;;;;;;;15.07;2.40;;;5.40;99.90;;;;;;5049592;28;20084;-73
2022/01/17 03:57:58;;;;;;;15.10;2.13;;;5.40;99.90;;;;;;5040476;28;20452;-72
2022/01/17 04:00:31;;;;;;;12.15;2.20;;;5.40;99.90;;;;;;5042585;28;20197;-74
2022/01/17 04:02:59;;;;;;;12.63;2.15;;;5.50;99.90;;;;;;5050213;28;20034;-74
2022/01/17 04:05:25;;;;;;;12.63;2.13;;;5.50;99.90;;;;;;5048383;28;20215;-74
2022/01/17 04:07:50;;;;;;;13.93;2.20;;;5.50;99.90;;;;;;5044412;28;20227;-73
2022/01/17 04:10:16;;;;;;;15.68;2.80;;;5.50;99.90;;;;;;5038834;28;20052;-73
2022/01/17 04:12:43;;;;;;;14.77;2.08;;;5.60;99.90;;;;;;5041724;28;20115;-74
2022/01/17 04:15:09;;;;;;;12.85;2.00;;;5.60;99.90;;;;;;5044301;28;20048;-73
2022/01/17 04:17:35;;;;;;;11.27;2.42;;;5.60;99.90;;;;;;5051349;28;20048;-73
2022/01/17 04:20:05;;;;;;;10.90;1.75;;;5.60;99.90;;;;;;5042520;28;20041;-73
2022/01/17 04:22:38;;;;;;;15.77;2.40;;;5.60;99.90;;;;;;5046448;28;20045;-73
2022/01/17 04:25:04;;;;;;;13.38;2.30;;;5.60;99.90;;;;;;5047121;28;20035;-74
2022/01/17 04:27:30;;;;;;;15.80;2.33;;;5.60;99.90;;;;;;5042024;28;20041;-74
2022/01/17 04:29:56;;;;;;;12.73;2.72;;;5.60;99.90;;;;;;5036227;28;20686;-73
2022/01/17 04:32:22;;;;;;;14.90;2.28;;;5.60;99.90;;;;;;5044696;28;20045;-73
2022/01/17 04:34:47;;;;;;;12.23;2.20;;;5.60;99.90;;;;;;5043986;28;20559;-73
2022/01/17 04:37:13;;;;;;;18.67;2.67;;;5.60;99.90;;;;;;5050992;28;20052;-73
2022/01/17 04:39:39;;;;;;;13.15;2.20;;;5.60;99.90;;;;;;5042203;28;20033;-73
2022/01/17 04:42:11;;;;;;;15.25;2.20;;;5.60;99.90;;;;;;5043944;28;20040;-73
2022/01/17 04:47:22;;;;;;;15.70;2.10;;;5.50;99.90;;;;;;5034770;28;20473;-74
2022/01/17 04:49:48;;;;;;;12.88;2.03;;;5.50;99.90;;;;;;5041785;28;20041;-73
2022/01/17 04:52:14;;;;;;;11.43;2.25;;;5.50;99.90;;;;;;5056464;28;20040;-72
2022/01/17 04:54:44;;;;;;;15.43;2.20;;;5.50;99.90;;;;;;5040727;28;20081;-72
2022/01/17 04:57:12;;;;;;;17.88;2.60;;;5.50;99.90;;;;;;5049351;28;20506;-73
2022/01/17 04:59:39;;;;;;;16.33;2.08;;;5.50;99.90;;;;;;5022856;28;20065;-73
2022/01/17 05:02:06;;;;;;;12.10;2.13;;;5.50;99.90;;;;;;5046405;28;20064;-72
2022/01/17 05:04:32;;;;;;;12.38;2.00;;;5.50;99.90;;;;;;5052637;28;20140;-75
2022/01/17 05:06:58;;;;;;;12.93;2.15;;;5.50;99.90;;;;;;5041734;28;20173;-73
2022/01/17 05:09:24;;;;;;;13.35;2.15;;;5.50;99.90;;;;;;5046558;28;20048;-73
2022/01/17 05:11:50;;;;;;;14.75;2.30;;;5.50;99.90;;;;;;5047069;28;20087;-72
2022/01/17 05:14:15;;;;;;;17.63;2.58;;;5.50;99.90;;;;;;5042282;28;20053;-72
2022/01/17 05:16:44;;;;;;;15.25;2.17;;;5.60;99.90;;;;;;5043960;28;20159;-72
2022/01/17 05:21:53;;;;;;;14.75;2.53;;;5.60;99.90;;;;;;5045514;28;20463;-72
2022/01/17 05:24:20;;;;;;;14.27;2.40;;;5.60;99.90;;;;;;5046126;28;20124;-73
2022/01/17 05:26:46;;;;;;;16.80;2.47;;;5.60;99.90;;;;;;5047177;28;20081;-72
2022/01/17 05:29:11;;;;;;;13.43;2.20;;;5.70;99.90;;;;;;5041858;28;20080;-72
2022/01/17 05:31:37;;;;;;;16.10;2.50;;;5.70;99.90;;;;;;5050071;28;20448;-72
2022/01/17 05:34:02;;;;;;;14.68;2.35;;;5.60;99.90;;;;;;5046718;28;20063;-73
2022/01/17 05:36:28;;;;;;;14.95;2.75;;;5.70;99.90;;;;;;5052959;28;20379;-72
2022/01/17 05:38:54;;;;;;;20.48;2.55;;;5.70;99.90;;;;;;5046813;28;20044;-72
2022/01/17 05:41:20;;;;;;;10.73;2.20;;;5.70;99.90;;;;;;5049166;28;20053;-73
2022/01/17 05:43:45;;;;;;;14.85;2.30;;;5.70;99.90;;;;;;5042962;28;20057;-72
2022/01/17 05:46:11;;;;;;;14.80;2.30;;;5.70;99.90;;;;;;5057992;28;20063;-73
2022/01/17 05:48:37;;;;;;;14.05;3.00;;;5.80;99.90;;;;;;5059230;28;20738;-73
2022/01/17 05:51:02;;;;;;;18.35;3.30;;;5.80;99.90;;;;;;5047316;28;20049;-74
2022/01/17 05:53:28;;;;;;;14.93;2.65;;;5.80;99.90;;;;;;5053285;28;20391;-75
2022/01/17 05:55:54;;;;;;;15.65;2.60;;;5.80;99.90;;;;;;5049241;28;20041;-75
2022/01/17 05:58:19;;;;;;;13.70;3.15;;;5.80;99.90;;;;;;5055335;28;20041;-73
2022/01/17 06:00:45;;;;;;;18.38;3.25;;;5.80;99.90;;;;;;5047821;28;20041;-74
2022/01/17 06:03:11;;;;;;;13.15;3.53;;;5.80;99.90;;;;;;5049433;28;20056;-73
2022/01/17 06:05:36;;;;;;;14.77;3.15;;;5.80;99.90;;;;;;5049483;28;20124;-73
2022/01/17 06:08:02;;;;;;;16.30;3.35;;;5.80;99.90;;;;;;5052956;28;20119;-74
2022/01/17 06:10:28;;;;;;;13.85;3.20;;;5.80;99.90;;;;;;5050075;28;20639;-75
2022/01/17 06:12:53;;;;;;;15.95;3.65;;;5.80;99.90;;;;;;5051260;28;20065;-74
2022/01/17 06:15:19;;;;;;;16.63;3.90;;;5.80;99.90;;;;;;5054896;28;20045;-74
2022/01/17 06:17:45;;;;;;;18.05;4.03;;;5.80;99.90;;;;;;5051258;28;20108;-75
2022/01/17 06:20:11;;;;;;;18.17;4.55;;;5.80;99.90;;;;;;5049775;28;20128;-71
2022/01/17 06:22:37;;;;;;;17.83;5.13;;;5.80;99.90;;;;;;5055433;28;20112;-75
2022/01/17 06:25:03;;;;;;;17.83;5.40;;;5.90;99.90;;;;;;5057837;28;20049;-74
2022/01/17 06:27:29;;;;;;;15.13;4.72;;;5.90;99.90;;;;;;5052096;28;20038;-75
2022/01/17 06:29:56;;;;;;;15.10;5.13;;;5.90;99.90;;;;;;5051260;28;20033;-73
2022/01/17 06:32:21;;;;;;;17.35;6.82;;;5.90;99.90;;;;;;5048500;28;20160;-75
2022/01/17 06:34:47;;;;;;;19.50;6.43;;;6.00;99.90;;;;;;5050185;28;20183;-75
2022/01/17 06:37:13;;;;;;;17.10;7.25;;;6.00;99.90;;;;;;5052235;28;20045;-77
2022/01/17 06:39:39;;;;;;;19.80;6.75;;;6.00;99.90;;;;;;5052513;28;20599;-74
2022/01/17 06:42:05;;;;;;;20.48;6.78;;;6.00;99.90;;;;;;5055588;28;20150;-75
2022/01/17 06:44:30;;;;;;;20.27;7.10;;;6.00;99.90;;;;;;5054362;28;20041;-76
2022/01/17 06:46:56;;;;;;;26.48;7.10;;;6.10;99.90;;;;;;5052385;28;20095;-75
2022/01/17 06:49:21;;;;;;;21.63;7.68;;;6.00;99.90;;;;;;5048552;28;20053;-75
2022/01/17 06:51:47;;;;;;;20.50;7.82;;;6.10;99.90;;;;;;5054354;28;20133;-74
2022/01/17 06:54:13;;;;;;;19.20;7.22;;;6.10;99.90;;;;;;5053186;28;20044;-74
2022/01/17 06:56:43;;;;;;;20.42;7.20;;;6.10;99.90;;;;;;5055149;28;20423;-75
2022/01/17 06:59:12;;;;;;;22.52;7.57;;;6.10;99.90;;;;;;5057338;28;20129;-75
2022/01/17 07:01:38;;;;;;;19.70;7.00;;;6.10;99.90;;;;;;5050542;28;20068;-74
2022/01/17 07:04:05;;;;;;;18.10;7.15;;;6.10;99.90;;;;;;5041998;28;20053;-74
2022/01/17 07:06:31;;;;;;;23.73;6.95;;;6.10;99.90;;;;;;5026123;28;20045;-73
2022/01/17 07:08:56;;;;;;;17.55;6.45;;;6.10;99.90;;;;;;5039604;28;20373;-74
2022/01/17 07:11:22;;;;;;;23.00;6.72;;;6.20;99.90;;;;;;5046485;28;20045;-73
2022/01/17 07:13:47;;;;;;;16.77;6.80;;;6.20;99.90;;;;;;5050872;28;20045;-72
2022/01/17 07:16:13;;;;;;;21.80;6.88;;;6.20;99.90;;;;;;5051322;28;20364;-73
2022/01/17 07:18:39;;;;;;;18.73;6.68;;;6.20;99.90;;;;;;5050017;28;20539;-74
2022/01/17 07:21:05;;;;;;;22.77;6.43;;;6.20;99.90;;;;;;5051945;28;20040;-71
2022/01/17 07:23:30;;;;;;;24.45;6.82;;;6.30;99.90;;;;;;5043959;28;20047;-71
2022/01/17 07:25:56;;;;;;;21.27;7.03;;;6.30;99.90;;;;;;5048385;28;20365;-72
2022/01/17 07:28:22;;;;;;;20.88;6.40;;;6.30;99.90;;;;;;5048664;28;20128;-73
2022/01/17 07:30:48;;;;;;;19.60;6.50;;;6.20;99.90;;;;;;5046272;28;20045;-71
2022/01/17 07:33:14;;;;;;;22.25;6.28;;;6.30;99.90;;;;;;5047637;28;20064;-71
2022/01/17 07:35:39;;;;;;;19.05;5.85;;;6.20;99.90;;;;;;5046291;28;20037;-71
2022/01/17 07:38:05;;;;;;;25.13;6.53;;;6.20;99.90;;;;;;5046863;28;20075;-70
2022/01/17 07:40:32;;;;;;;24.55;5.95;;;6.20;99.90;;;;;;5045970;28;20061;-71
2022/01/17 07:42:57;;;;;;;21.95;6.03;;;6.20;99.90;;;;;;5045786;28;20049;-71
2022/01/17 07:45:25;;;;;;;23.50;6.25;;;6.20;99.90;;;;;;5048112;28;20310;-70
2022/01/17 07:50:20;;;;;;;22.67;5.35;;;6.20;99.90;;;;;;5047338;28;20095;-74
2022/01/17 07:52:47;;;;;;;23.58;5.93;;;6.30;99.90;;;;;;5052956;28;20056;-72
2022/01/17 07:55:14;;;;;;;25.77;6.40;;;6.30;99.90;;;;;;5047159;28;20124;-73
2022/01/17 07:57:41;;;;;;;27.65;6.40;;;6.20;99.90;;;;;;5046359;28;21157;-72
2022/01/17 08:00:10;;;;;;;28.90;5.78;;;6.20;99.90;;;;;;5044284;28;20061;-71
2022/01/17 08:02:35;;;;;;;24.42;4.97;;;6.20;99.90;;;;;;5047065;28;20503;-72
2022/01/17 08:05:02;;;;;;;28.00;5.63;;;6.30;99.90;;;;;;5048018;28;20040;-72
2022/01/17 08:07:28;;;;;;;22.63;4.50;;;6.30;99.90;;;;;;5048402;28;20049;-72
2022/01/17 08:09:54;;;;;;;18.40;4.28;;;6.30;99.90;;;;;;5046608;28;20352;-74
2022/01/17 08:12:19;;;;;;;17.80;4.43;;;6.30;99.90;;;;;;5049098;28;20056;-73
2022/01/17 08:14:45;;;;;;;25.95;4.95;;;6.30;99.90;;;;;;5041946;28;20052;-74
2022/01/17 08:17:11;;;;;;;19.38;4.15;;;6.30;99.90;;;;;;5049230;28;20045;-75
2022/01/17 08:19:37;;;;;;;23.60;4.10;;;6.40;99.90;;;;;;5051551;28;20060;-73
2022/01/17 08:22:05;;;;;;;19.50;3.80;;;6.40;99.90;;;;;;5051371;28;20033;-73
2022/01/17 08:24:33;;;;;;;22.67;4.13;;;6.40;99.90;;;;;;5050951;28;20060;-73
2022/01/17 08:26:59;;;;;;;19.73;3.58;;;6.40;99.90;;;;;;5052799;28;20076;-75
2022/01/17 08:29:26;;;;;;;19.88;3.58;;;6.40;99.90;;;;;;5056952;28;20048;-73
2022/01/17 08:31:53;;;;;;;24.42;3.92;;;6.40;99.90;;;;;;5055161;28;20076;-74
2022/01/17 08:34:18;;;;;;;24.35;4.40;;;6.50;99.90;;;;;;5043325;28;20175;-72
2022/01/17 08:36:45;;;;;;;18.45;4.13;;;6.50;99.90;;;;;;5047703;28;20508;-73
2022/01/17 08:39:12;;;;;;;18.15;3.65;;;6.50;99.90;;;;;;5042708;28;20125;-73
2022/01/17 08:41:42;;;;;;;21.08;4.05;;;6.60;99.90;;;;;;5048528;28;20049;-73
2022/01/17 08:44:08;;;;;;;24.05;4.00;;;6.60;99.90;;;;;;5048773;28;20124;-74
2022/01/17 08:46:34;;;;;;;19.92;4.00;;;6.70;99.90;;;;;;5050288;28;20060;-73
2022/01/17 08:48:59;;;;;;;23.52;3.55;;;6.70;99.90;;;;;;5055264;28;20445;-73
2022/01/17 08:51:25;;;;;;;17.40;3.25;;;6.80;99.90;;;;;;5042232;28;20068;-73
2022/01/17 08:53:50;;;;;;;20.88;3.92;;;6.80;99.90;;;;;;5043671;28;20045;-73
2022/01/17 08:56:16;;;;;;;24.25;4.18;;;6.80;99.90;;;;;;5049636;28;20041;-73
2022/01/17 08:58:41;;;;;;;22.88;4.15;;;6.80;99.90;;;;;;5042915;28;20045;-73
2022/01/17 09:01:08;;;;;;;20.58;4.15;;;6.90;99.90;;;;;;5053785;28;20180;-73
2022/01/17 09:03:36;;;;;;;23.35;4.85;;;6.90;99.90;;;;;;5043756;28;20045;-74
2022/01/17 09:06:01;;;;;;;22.65;4.43;;;7.00;99.90;;;;;;5063933;28;20065;-71
2022/01/17 09:08:27;;;;;;;22.42;4.18;;;7.00;99.90;;;;;;5048988;28;20052;-72
2022/01/17 09:10:55;;;;;;;20.35;3.33;;;7.00;99.90;;;;;;5046033;28;20408;-73
2022/01/17 09:13:21;;;;;;;30.02;4.20;;;7.10;99.90;;;;;;5045733;28;20057;-71
2022/01/17 09:15:47;;;;;;;24.42;4.15;;;7.10;99.90;;;;;;5043723;28;20060;-70
2022/01/17 09:18:14;;;;;;;22.77;4.00;;;7.10;99.90;;;;;;5047962;28;20219;-70
2022/01/17 09:20:40;;;;;;;21.02;3.60;;;7.20;99.90;;;;;;5052574;28;20471;-71
2022/01/17 09:23:06;;;;;;;23.90;4.32;;;7.20;99.90;;;;;;5053356;28;20065;-71
2022/01/17 09:25:33;;;;;;;28.13;4.25;;;7.30;99.90;;;;;;5052317;28;20064;-71
2022/01/17 09:27:58;;;;;;;25.48;4.40;;;7.30;99.90;;;;;;5043743;28;20042;-71
2022/01/17 09:30:24;;;;;;;18.50;4.65;;;7.30;99.90;;;;;;5051075;28;20107;-71
2022/01/17 09:32:50;;;;;;;32.85;5.65;;;7.40;99.90;;;;;;5053898;28;20111;-71
2022/01/17 09:35:16;;;;;;;24.60;6.40;;;7.40;99.90;;;;;;5050719;28;20514;-72
2022/01/17 09:37:42;;;;;;;32.53;7.32;;;7.40;99.90;;;;;;5051709;28;20464;-74
2022/01/17 09:40:09;;;;;;;27.05;6.63;;;7.50;99.90;;;;;;5046592;28;20038;-73
2022/01/17 09:42:37;;;;;;;26.10;6.72;;;7.50;99.90;;;;;;5046132;28;20053;-73
2022/01/17 09:45:06;;;;;;;22.70;6.20;;;7.60;99.90;;;;;;5045773;28;20106;-72
2022/01/17 09:47:34;;;;;;;28.45;7.10;;;7.60;99.90;;;;;;5041863;28;20045;-72
2022/01/17 09:50:01;;;;;;;28.67;6.75;;;7.60;99.90;;;;;;5047479;28;20190;-72
2022/01/17 09:52:34;;;;;;;28.00;5.70;;;7.70;99.90;;;;;;5059785;28;20128;-72
2022/01/17 09:55:05;;;;;;;19.60;4.10;;;7.70;99.90;;;;;;5048715;28;20599;-73
2022/01/17 09:57:32;;;;;;;26.88;4.32;;;7.80;99.90;;;;;;5060077;28;20121;-72
2022/01/17 09:59:58;;;;;;;25.27;4.40;;;7.80;99.90;;;;;;5047285;28;20068;-73
2022/01/17 10:02:24;;;;;;;27.23;4.28;;;7.90;99.90;;;;;;5045010;28;20337;-71
2022/01/17 10:04:51;;;;;;;30.17;4.35;;;7.90;99.90;;;;;;5052673;28;20127;-72
2022/01/17 10:07:16;;;;;;;25.52;5.13;;;7.90;99.90;;;;;;5051458;28;20057;-72
2022/01/17 10:09:54;;;;;;;22.52;4.13;;;8.00;99.90;;;;;;5036856;28;20040;-72
2022/01/17 10:12:20;;;;;;;26.83;4.22;;;8.00;99.90;;;;;;5052594;28;20429;-72
2022/01/17 10:15:05;;;;;;;20.15;3.72;;;8.00;99.90;;;;;;5058050;28;20120;-72
2022/01/17 10:17:50;;;;;;;26.58;4.53;;;8.00;99.90;;;;;;5051424;28;20475;-72
2022/01/17 10:20:18;;;;;;;24.90;3.77;;;8.10;99.90;;;;;;5053695;28;20051;-73
2022/01/17 10:22:56;;;;;;;24.17;4.25;;;8.10;99.90;;;;;;5050923;28;20652;-73
2022/01/17 10:28:31;;;;;;;26.55;4.38;;;8.20;99.90;;;;;;5052027;28;20433;-72
2022/01/17 10:31:19;;;;;;;22.10;4.20;;;8.30;99.90;;;;;;5055398;28;20088;-72
2022/01/17 10:36:46;;;;;;;20.63;4.35;;;8.40;99.90;;;;;;5051217;28;20115;-72
2022/01/17 10:39:11;;;;;;;25.65;4.15;;;8.40;99.90;;;;;;5063759;28;20048;-73
2022/01/17 10:41:37;;;;;;;25.05;4.47;;;8.40;99.90;;;;;;5070017;28;20059;-74
2022/01/17 10:44:04;;;;;;;21.95;4.25;;;8.50;99.90;;;;;;5071537;28;20495;-72
2022/01/17 10:46:29;;;;;;;25.88;4.55;;;8.50;99.90;;;;;;5069327;28;20071;-73
2022/01/17 10:48:56;;;;;;;26.00;5.00;;;8.50;99.90;;;;;;5063005;28;20068;-73
2022/01/17 10:51:34;;;;;;;23.20;4.63;;;8.50;99.90;;;;;;5044654;28;20041;-73
2022/01/17 10:54:11;;;;;;;29.27;4.50;;;8.60;99.90;;;;;;5030306;28;20118;-72
2022/01/17 10:56:56;;;;;;;29.38;4.70;;;8.60;99.90;;;;;;5045199;28;20049;-74
2022/01/17 10:59:31;;;;;;;26.25;4.55;;;8.60;99.90;;;;;;5053143;28;20037;-73
2022/01/17 11:01:58;;;;;;;26.75;4.45;;;8.60;99.90;;;;;;5050069;28;20090;-74
2022/01/17 11:04:38;;;;;;;29.88;4.85;;;8.60;99.90;;;;;;5035269;28;20132;-73
2022/01/17 11:07:08;;;;;;;30.33;4.38;;;8.60;99.90;;;;;;5031220;28;20129;-73
2022/01/17 11:09:39;;;;;;;26.80;4.47;;;8.60;99.90;;;;;;5045532;28;20128;-73
2022/01/17 11:12:13;;;;;;;27.42;4.85;;;8.70;99.90;;;;;;5070881;28;20052;-73
2022/01/17 11:14:39;;;;;;;30.20;5.05;;;8.80;99.90;;;;;;5061720;28;20102;-74
2022/01/17 11:17:38;;;;;;;27.33;4.97;;;8.90;99.90;;;;;;5049892;28;20123;-73
2022/01/17 11:20:07;;;;;;;32.05;5.10;;;9.00;99.90;;;;;;5043411;28;20051;-74
2022/01/17 11:22:38;;;;;;;27.45;5.13;;;9.00;99.90;;;;;;5050082;28;20083;-74
2022/01/17 11:25:07;;;;;;;30.60;6.25;;;9.00;99.90;;;;;;5037349;28;20091;-71
2022/01/17 11:27:33;;;;;;;24.60;5.53;;;9.10;99.90;;;;;;5046251;28;20053;-70
2022/01/17 11:29:59;;;;;;;32.33;6.22;;;9.10;99.90;;;;;;5045966;28;20049;-74
2022/01/17 11:32:25;;;;;;;25.10;4.82;;;9.10;99.90;;;;;;5045247;28;20446;-70
2022/01/17 11:34:52;;;;;;;28.00;5.30;;;9.10;99.90;;;;;;5049710;28;20151;-71
2022/01/17 11:37:19;;;;;;;33.70;4.93;;;9.10;99.90;;;;;;5050634;28;20105;-70
2022/01/17 11:39:50;;;;;;;30.98;5.28;;;9.10;99.90;;;;;;5046011;28;20379;-70
2022/01/17 11:42:34;;;;;;;32.47;5.63;;;9.20;99.90;;;;;;5053176;28;20036;-70
2022/01/17 11:45:02;;;;;;;29.65;5.68;;;9.20;99.90;;;;;;5050489;28;20037;-72
2022/01/17 11:47:52;;;;;;;29.10;5.70;;;9.10;99.90;;;;;;5052762;28;20095;-72
2022/01/17 11:50:34;;;;;;;32.38;5.15;;;9.10;99.90;;;;;;5047554;28;20048;-72
2022/01/17 11:53:19;;;;;;;30.52;5.93;;;9.00;99.90;;;;;;5046795;28;20364;-73
2022/01/17 11:55:47;;;;;;;36.22;5.95;;;9.10;99.90;;;;;;5048388;28;20076;-71
2022/01/17 11:58:26;;;;;;;33.50;5.57;;;9.10;99.90;;;;;;5051809;28;20412;-71
2022/01/17 12:01:01;;;;;;;28.80;5.45;;;9.20;99.90;;;;;;5051147;28;20119;-73
2022/01/17 12:03:47;;;;;;;31.92;5.35;;;9.30;99.90;;;;;;5051547;28;20695;-70
2022/01/17 12:06:33;;;;;;;30.73;6.35;;;9.30;99.90;;;;;;5054574;28;20048;-72
2022/01/17 12:09:22;;;;;;;26.40;5.57;;;9.40;99.90;;;;;;5053198;28;20064;-73
2022/01/17 12:12:13;;;;;;;34.42;6.00;;;9.40;99.90;;;;;;5055087;28;20047;-73
2022/01/17 12:14:52;;;;;;;34.42;6.38;;;9.50;99.90;;;;;;5054218;28;20059;-73
2022/01/17 12:17:27;;;;;;;33.20;7.00;;;9.50;99.90;;;;;;5050974;28;20115;-73
2022/01/17 12:20:09;;;;;;;36.45;5.80;;;9.50;99.90;;;;;;5067327;28;20045;-76
2022/01/17 12:22:47;;;;;;;30.92;5.47;;;9.50;99.90;;;;;;5050722;28;20440;-73
2022/01/17 12:25:21;;;;;;;34.78;7.18;;;9.60;99.90;;;;;;5053754;28;20475;-71
2022/01/17 12:27:48;;;;;;;30.85;5.53;;;9.60;99.90;;;;;;5051075;28;20040;-73
2022/01/17 12:30:16;;;;;;;32.90;6.05;;;9.60;99.90;;;;;;5053430;28;20136;-73
2022/01/17 12:32:45;;;;;;;35.85;7.05;;;9.70;99.90;;;;;;5053418;28;20041;-75
2022/01/17 12:35:21;;;;;;;33.83;5.25;;;9.70;99.90;;;;;;5050118;28;20105;-75
2022/01/17 12:37:51;;;;;;;35.35;6.38;;;9.70;99.90;;;;;;5054816;28;20045;-74
2022/01/17 12:40:35;;;;;;;31.05;5.63;;;9.80;99.90;;;;;;5049438;28;20116;-73
2022/01/17 12:43:08;;;;;;;35.05;6.00;;;9.80;99.90;;;;;;5049274;28;20048;-73
2022/01/17 12:45:38;;;;;;;32.30;5.28;;;9.80;99.90;;;;;;5048542;28;20094;-71
2022/01/17 12:48:07;;;;;;;32.78;6.18;;;9.80;99.90;;;;;;5052656;28;20037;-71
2022/01/17 12:50:36;;;;;;;31.95;5.53;;;9.80;99.90;;;;;;5052152;28;20045;-71
2022/01/17 12:53:03;;;;;;;35.13;6.22;;;9.80;99.90;;;;;;5050681;28;20057;-73
2022/01/17 12:55:39;;;;;;;27.70;6.45;;;9.80;99.90;;;;;;5050322;28;20120;-71
2022/01/17 12:58:24;;;;;;;32.28;6.45;;;9.70;99.90;;;;;;5050632;28;20063;-72
2022/01/17 13:01:05;;;;;;;33.63;5.68;;;9.70;99.90;;;;;;5052582;28;20073;-75
2022/01/17 13:03:33;;;;;;;30.92;5.78;;;9.70;99.90;;;;;;5047805;28;20098;-72
2022/01/17 13:06:00;;;;;;;37.47;6.90;;;9.70;99.90;;;;;;5052635;28;20049;-72
2022/01/17 13:08:26;;;;;;;42.03;7.18;;;9.70;99.90;;;;;;5049587;28;20041;-72
2022/01/17 13:10:53;;;;;;;36.50;7.00;;;9.70;99.90;;;;;;5054632;28;20119;-72
2022/01/17 13:13:19;;;;;;;35.47;7.32;;;9.60;99.90;;;;;;5047384;28;20056;-72
2022/01/17 13:16:01;;;;;;;29.65;6.78;;;9.50;99.90;;;;;;5051328;28;20049;-71
2022/01/17 13:18:29;;;;;;;39.53;7.65;;;9.50;99.90;;;;;;5027898;28;20414;-72